Time;durP1;ratioP1;P1;durP2;ratioP2;P2;SDS_P1;SDS_P2;PMS_P1;PMS_P2;Temp;Humidity;BMP_temperature;BMP_pressure;BME280_temperature;BME280_humidity;BME280_pressure;Samples;Min_cycle;Max_cycle;Signal;HPM_P1;HPM_P2
2021/08/21 00:00:17;;;;;;;13.60;11.43;;;;;;;14.31;94.45;101678.84;2106936;28;20465;-63
2021/08/21 00:01:18;;;;;;;12.05;10.85;;;;;;;14.31;94.66;101678.84;2106824;28;20024;-63
2021/08/21 00:02:18;;;;;;;12.27;10.83;;;;;;;14.32;94.39;101683.19;2106795;28;20099;-64
2021/08/21 00:03:18;;;;;;;11.20;8.17;;;;;;;14.31;94.48;101678.84;2106877;28;20024;-63
2021/08/21 00:04:18;;;;;;;13.67;11.07;;;;;;;14.32;94.44;101677.06;2097880;28;20016;-63
2021/08/21 00:05:19;;;;;;;10.60;9.50;;;;;;;14.34;94.36;101678.69;2097913;28;20047;-63
2021/08/21 00:06:19;;;;;;;12.53;10.00;;;;;;;14.37;94.37;101681.19;2106818;28;20024;-63
2021/08/21 00:07:19;;;;;;;12.70;10.63;;;;;;;14.39;94.48;101684.63;2097344;28;20081;-63
2021/08/21 00:08:19;;;;;;;12.90;10.57;;;;;;;14.40;94.38;101670.56;2097811;28;20107;-64
2021/08/21 00:09:20;;;;;;;12.17;10.77;;;;;;;14.41;94.16;101679.28;2106696;28;20020;-63
2021/08/21 00:10:21;;;;;;;14.17;10.33;;;;;;;14.41;94.10;101669.63;2106792;28;20055;-63
2021/08/21 00:11:21;;;;;;;11.63;10.00;;;;;;;14.44;94.26;101673.03;2106678;28;20020;-64
2021/08/21 00:12:22;;;;;;;15.53;9.33;;;;;;;14.45;94.10;101669.50;2106806;28;20441;-63
2021/08/21 00:13:22;;;;;;;11.77;9.07;;;;;;;14.44;94.17;101670.41;2106739;28;20144;-63
2021/08/21 00:14:22;;;;;;;11.43;10.33;;;;;;;14.42;94.35;101671.34;2106713;28;20023;-63
2021/08/21 00:15:23;;;;;;;10.63;8.47;;;;;;;14.46;94.30;101671.19;2106770;28;20024;-63
2021/08/21 00:16:23;;;;;;;12.45;10.52;;;;;;;14.46;94.36;101669.41;2106803;28;20165;-63
2021/08/21 00:17:23;;;;;;;12.53;11.03;;;;;;;14.48;94.25;101669.34;2106777;28;20032;-61
2021/08/21 00:18:24;;;;;;;11.23;9.17;;;;;;;14.50;94.32;101670.13;2106758;28;20431;-63
2021/08/21 00:19:24;;;;;;;17.20;11.43;;;;;;;14.51;94.17;101666.59;2106884;28;20031;-63
2021/08/21 00:20:24;;;;;;;12.07;10.63;;;;;;;14.54;94.33;101675.16;2106776;28;20100;-64
2021/08/21 00:21:25;;;;;;;11.40;8.83;;;;;;;14.54;94.43;101659.41;2106784;28;20360;-63
2021/08/21 00:22:25;;;;;;;11.98;9.70;;;;;;;14.57;94.19;101663.66;2106719;28;20027;-63
2021/08/21 00:23:26;;;;;;;11.47;10.37;;;;;;;14.57;93.97;101661.03;2097782;28;20565;-63
2021/08/21 00:24:26;;;;;;;11.03;9.93;;;;;;;14.57;93.76;101658.41;2097853;28;20477;-65
2021/08/21 00:25:26;;;;;;;11.50;9.77;;;;;;;14.58;94.17;101665.41;2106608;28;20412;-65
2021/08/21 00:26:26;;;;;;;13.57;8.70;;;;;;;14.57;94.21;101658.41;2106786;28;20020;-65
2021/08/21 00:27:27;;;;;;;11.27;8.80;;;;;;;14.57;94.10;101650.53;2106676;28;20297;-64
2021/08/21 00:28:27;;;;;;;10.83;8.43;;;;;;;14.56;94.07;101656.72;2106716;28;20062;-64
2021/08/21 00:29:27;;;;;;;12.73;8.43;;;;;;;14.58;94.20;101661.91;2106709;28;20027;-64
2021/08/21 00:30:28;;;;;;;13.43;9.03;;;;;;;14.58;94.26;101657.50;2106776;28;20024;-64
2021/08/21 00:31:29;;;;;;;10.77;9.00;;;;;;;14.58;94.23;101656.66;2097707;28;20409;-63
2021/08/21 00:32:31;;;;;;;14.02;8.95;;;;;;;14.58;94.24;101654.88;2097836;28;20366;-63
2021/08/21 00:33:31;;;;;;;15.85;12.10;;;;;;;14.60;94.03;101655.66;2106741;28;20028;-63
2021/08/21 00:34:32;;;;;;;12.85;11.57;;;;;;;14.60;93.96;101663.53;2106695;28;20038;-64
2021/08/21 00:35:33;;;;;;;14.02;10.88;;;;;;;14.59;94.22;101655.72;2097662;28;20036;-64
2021/08/21 00:36:33;;;;;;;16.00;10.10;;;;;;;14.58;94.12;101660.13;2097729;28;20062;-63
2021/08/21 00:37:33;;;;;;;12.70;11.53;;;;;;;14.58;94.15;101654.03;2106598;28;20039;-64
2021/08/21 00:38:33;;;;;;;15.10;13.17;;;;;;;14.59;94.00;101656.59;2106698;28;20108;-64
2021/08/21 00:39:34;;;;;;;15.23;12.43;;;;;;;14.60;93.78;101653.03;2097677;28;20036;-63
2021/08/21 00:40:34;;;;;;;14.87;12.00;;;;;;;14.61;94.14;101649.47;2089383;28;20041;-64
2021/08/21 00:41:35;;;;;;;14.37;10.83;;;;;;;14.63;94.07;101654.66;2097716;28;20044;-64
2021/08/21 00:42:36;;;;;;;14.05;11.35;;;;;;;14.64;94.08;101658.97;2106691;28;20077;-63
2021/08/21 00:43:37;;;;;;;12.68;11.32;;;;;;;14.65;94.06;101658.91;2106699;28;20477;-63
2021/08/21 00:44:39;;;;;;;11.23;10.10;;;;;;;14.67;94.00;101659.69;2106643;28;20031;-63
2021/08/21 00:45:39;;;;;;;13.05;11.55;;;;;;;14.69;94.05;101657.00;2106679;28;20024;-63
2021/08/21 00:47:00;;;;;;;13.27;12.03;;;;;;;14.70;94.11;101652.59;2106733;28;20020;-64
2021/08/21 00:48:01;;;;;;;12.77;10.95;;;;;;;14.71;93.99;101655.13;2106576;28;20504;-63
2021/08/21 00:49:02;;;;;;;13.02;11.60;;;;;;;14.73;93.96;101657.69;2097605;28;20028;-63
2021/08/21 00:50:03;;;;;;;12.98;11.55;;;;;;;14.75;93.83;101661.13;2097430;28;20107;-64
2021/08/21 00:51:03;;;;;;;14.00;12.65;;;;;;;14.76;94.08;101665.44;2106623;28;20039;-64
2021/08/21 00:52:05;;;;;;;13.47;12.17;;;;;;;14.76;93.84;101657.56;2106609;28;20020;-64
2021/08/21 00:53:05;;;;;;;13.45;12.10;;;;;;;14.76;93.81;101658.44;2106508;28;20031;-64
2021/08/21 00:54:06;;;;;;;13.87;11.93;;;;;;;14.78;93.72;101656.59;2106614;28;20020;-64
2021/08/21 00:55:08;;;;;;;13.13;11.75;;;;;;;14.79;93.87;101654.81;2106740;28;20102;-64
2021/08/21 00:56:08;;;;;;;13.57;12.23;;;;;;;14.80;93.87;101656.53;2106622;28;20486;-63
2021/08/21 00:57:11;;;;;;;13.00;11.60;;;;;;;14.83;93.95;101643.25;2106671;28;20024;-64
2021/08/21 00:58:11;;;;;;;12.82;11.48;;;;;;;14.84;93.85;101655.44;2106535;28;20032;-64
2021/08/21 00:59:12;;;;;;;13.70;12.30;;;;;;;14.87;93.62;101650.06;2106589;28;20115;-63
2021/08/21 01:00:12;;;;;;;16.00;12.43;;;;;;;14.88;93.73;101651.75;2106650;28;20107;-64
2021/08/21 01:01:13;;;;;;;13.85;12.55;;;;;;;14.88;93.67;101651.75;2106639;28;20084;-63
2021/08/21 01:02:14;;;;;;;14.90;12.57;;;;;;;14.90;93.63;101649.06;2106423;28;20020;-64
2021/08/21 01:03:14;;;;;;;16.50;11.77;;;;;;;14.88;93.42;101641.25;2106586;28;20024;-63
2021/08/21 01:04:15;;;;;;;14.10;12.63;;;;;;;14.89;93.65;101642.94;2106625;28;20023;-64
2021/08/21 01:05:16;;;;;;;14.68;12.13;;;;;;;14.89;93.43;101640.31;2106671;28;20095;-64
2021/08/21 01:06:16;;;;;;;;;;;;;;;14.91;93.64;101650.75;2107081;28;20020;-64
2021/08/21 01:07:22;;;;;;;12.65;11.35;;;;;;;14.91;93.32;101651.59;2106499;28;19957;-64
2021/08/21 01:08:23;;;;;;;12.73;11.38;;;;;;;14.91;93.53;101646.34;2105926;28;20039;-62
2021/08/21 01:09:23;;;;;;;14.13;11.47;;;;;;;14.93;93.95;101644.50;2106026;28;20052;-63
2021/08/21 01:10:23;;;;;;;13.73;12.20;;;;;;;14.97;93.59;101654.84;2106780;28;20027;-62
2021/08/21 01:11:24;;;;;;;15.43;12.87;;;;;;;14.98;93.42;101646.06;2108053;28;20066;-63
2021/08/21 01:12:24;;;;;;;13.07;11.87;;;;;;;15.00;93.38;101638.94;2108258;28;20022;-63
2021/08/21 01:13:25;;;;;;;13.73;11.63;;;;;;;15.02;93.48;101642.38;2108203;28;20469;-64
2021/08/21 01:14:27;;;;;;;12.95;11.48;;;;;;;15.03;93.47;101637.03;2108133;28;20039;-63
2021/08/21 01:15:27;;;;;;;13.38;11.73;;;;;;;15.06;93.14;101643.91;2108149;28;20473;-64
2021/08/21 01:16:28;;;;;;;13.90;12.50;;;;;;;15.07;93.19;101642.97;2108162;28;20024;-64
2021/08/21 01:17:28;;;;;;;16.80;12.57;;;;;;;15.06;93.07;101643.91;2108172;28;20098;-63
2021/08/21 01:18:29;;;;;;;14.52;13.00;;;;;;;15.07;93.24;101642.97;2099108;28;20025;-64
2021/08/21 01:19:32;;;;;;;14.75;12.90;;;;;;;15.07;93.16;101640.34;2099194;28;20071;-64
2021/08/21 01:20:33;;;;;;;15.50;11.60;;;;;;;15.06;93.28;101636.88;2108128;28;20020;-63
2021/08/21 01:21:33;;;;;;;12.35;11.10;;;;;;;15.08;93.23;101641.22;2108086;28;20032;-63
2021/08/21 01:22:34;;;;;;;12.67;11.37;;;;;;;15.06;93.08;101633.41;2108149;28;20479;-63
2021/08/21 01:23:37;;;;;;;13.32;11.93;;;;;;;15.06;93.02;101638.66;2108064;28;20547;-63
2021/08/21 01:24:39;;;;;;;13.55;12.32;;;;;;;15.04;93.09;101636.09;2108097;28;20023;-63
2021/08/21 01:25:39;;;;;;;13.10;11.57;;;;;;;15.04;93.08;101635.25;2108093;28;20028;-63
2021/08/21 01:26:51;;;;;;;14.43;12.57;;;;;;;15.01;93.15;101632.75;2108006;28;20028;-64
2021/08/21 01:27:51;;;;;;;17.05;12.93;;;;;;;15.01;93.16;101640.63;2108056;28;20031;-64
2021/08/21 01:28:51;;;;;;;16.90;12.15;;;;;;;14.99;93.35;101643.34;2108067;28;20481;-64
2021/08/21 01:29:52;;;;;;;15.20;13.70;;;;;;;14.97;93.54;101639.94;2107920;28;20034;-63
2021/08/21 01:30:52;;;;;;;13.63;12.15;;;;;;;14.95;93.26;101638.31;2108065;28;20028;-63
2021/08/21 01:31:53;;;;;;;16.97;13.20;;;;;;;14.95;93.37;101640.97;2108061;28;20027;-63
2021/08/21 01:32:53;;;;;;;16.23;13.30;;;;;;;14.91;93.67;101640.22;2098905;28;20123;-63
2021/08/21 01:33:54;;;;;;;17.48;12.18;;;;;;;14.91;93.67;101646.34;2099036;28;20031;-64
2021/08/21 01:34:55;;;;;;;19.07;13.83;;;;;;;14.88;93.60;101638.59;2107381;28;20020;-64
2021/08/21 01:35:55;;;;;;;20.38;13.35;;;;;;;14.88;93.59;101643.88;2107410;28;20524;-64
2021/08/21 01:36:55;;;;;;;17.17;13.40;;;;;;;14.87;93.64;101642.16;2107949;28;20030;-63
2021/08/21 01:37:55;;;;;;;14.93;13.43;;;;;;;14.84;93.63;101639.69;2108060;28;20097;-63
2021/08/21 01:38:57;;;;;;;16.10;12.87;;;;;;;14.82;93.44;101640.69;2107864;28;20028;-64
2021/08/21 01:39:57;;;;;;;;;;;;;;;14.81;93.29;101652.97;2099439;28;20020;-64
2021/08/21 01:40:58;;;;;;;14.77;13.05;;;;;;;14.76;93.33;101652.31;2098953;28;19995;-63
2021/08/21 01:41:58;;;;;;;14.90;13.27;;;;;;;14.71;93.42;101649.06;2099063;28;20099;-63
2021/08/21 01:42:59;;;;;;;15.43;11.07;;;;;;;14.68;93.34;101643.00;2107932;28;20537;-64
2021/08/21 01:43:59;;;;;;;16.33;13.17;;;;;;;14.67;93.44;101648.31;2107758;28;20430;-64
2021/08/21 01:44:59;;;;;;;15.27;12.03;;;;;;;14.62;93.37;101648.56;2108002;28;20050;-64
2021/08/21 01:45:59;;;;;;;13.23;11.13;;;;;;;14.57;93.42;101637.41;2107902;28;20512;-63
2021/08/21 01:46:59;;;;;;;15.30;13.70;;;;;;;14.57;93.61;101641.81;2107918;28;20477;-63
2021/08/21 01:48:00;;;;;;;16.90;13.50;;;;;;;14.53;93.58;101639.34;2107853;28;20481;-64
2021/08/21 01:49:01;;;;;;;14.00;12.63;;;;;;;14.51;93.39;101640.34;2107916;28;20020;-63
2021/08/21 01:50:05;;;;;;;13.40;12.02;;;;;;;14.48;93.80;101643.09;2107841;28;20087;-63
2021/08/21 01:51:05;;;;;;;14.27;12.82;;;;;;;14.46;93.96;101639.69;2107747;28;20153;-64
2021/08/21 01:52:06;;;;;;;14.73;10.67;;;;;;;14.43;94.03;101643.28;2107687;28;20468;-64
2021/08/21 01:53:14;;;;;;;13.70;10.95;;;;;;;14.39;93.99;101639.97;2107796;28;20028;-63
2021/08/21 01:54:19;;;;;;;14.00;10.43;;;;;;;14.36;94.14;101636.63;2107677;28;20030;-63
2021/08/21 01:55:21;;;;;;;12.57;10.57;;;;;;;14.33;94.01;101640.25;2098759;28;20017;-62
2021/08/21 01:56:21;;;;;;;14.10;11.60;;;;;;;14.33;93.85;101639.41;2099087;28;20493;-63
2021/08/21 01:57:22;;;;;;;13.10;11.73;;;;;;;14.29;94.04;101638.69;2107830;28;20023;-62
2021/08/21 01:58:22;;;;;;;15.17;13.20;;;;;;;14.26;93.96;101638.81;2107846;28;20369;-62
2021/08/21 01:59:25;;;;;;;16.17;12.05;;;;;;;14.23;94.01;101636.34;2107789;28;20024;-61
2021/08/21 02:00:29;;;;;;;14.82;10.52;;;;;;;14.19;94.31;101642.66;2107734;28;20016;-63
2021/08/21 02:01:29;;;;;;;13.23;11.82;;;;;;;14.15;94.06;101642.78;2107752;28;20020;-62
2021/08/21 02:02:29;;;;;;;11.47;8.80;;;;;;;14.14;94.15;101646.31;2107687;28;20059;-61
2021/08/21 02:03:31;;;;;;;14.23;11.50;;;;;;;14.12;94.08;101644.69;2098680;28;20020;-63
2021/08/21 02:04:32;;;;;;;16.42;12.40;;;;;;;14.10;94.26;101639.50;2098999;28;20024;-61
2021/08/21 02:05:33;;;;;;;15.18;12.52;;;;;;;14.08;94.26;101643.97;2107720;28;20102;-62
2021/08/21 02:06:33;;;;;;;14.82;11.05;;;;;;;14.03;94.17;101638.94;2107659;28;20024;-62
2021/08/21 02:07:34;;;;;;;19.90;14.10;;;;;;;14.05;94.36;101646.75;2098635;28;20028;-61
2021/08/21 02:08:34;;;;;;;16.80;12.20;;;;;;;14.04;94.45;101640.63;2098750;28;20028;-62
2021/08/21 02:09:35;;;;;;;13.83;10.23;;;;;;;14.01;94.38;101647.78;2107692;28;20064;-61
2021/08/21 02:10:35;;;;;;;13.55;11.45;;;;;;;14.00;94.64;101641.69;2107573;28;20099;-62
2021/08/21 02:11:36;;;;;;;17.40;11.37;;;;;;;14.00;94.51;101648.72;2107566;28;20027;-61
2021/08/21 02:12:36;;;;;;;15.00;11.07;;;;;;;14.01;94.50;101645.16;2098754;28;20078;-63
2021/08/21 02:13:37;;;;;;;15.10;13.18;;;;;;;14.00;94.65;101643.47;2098769;28;20044;-62
2021/08/21 02:14:37;;;;;;;12.77;10.57;;;;;;;13.96;94.39;101642.75;2107660;28;20062;-62
2021/08/21 02:15:38;;;;;;;17.80;12.07;;;;;;;13.96;94.61;101647.16;2107588;28;20077;-62
2021/08/21 02:16:38;;;;;;;16.20;12.50;;;;;;;13.94;94.51;101638.47;2107674;28;20020;-61
2021/08/21 02:17:38;;;;;;;13.70;12.33;;;;;;;13.94;94.64;101634.09;2107556;28;20028;-61
2021/08/21 02:18:39;;;;;;;13.87;10.47;;;;;;;13.91;94.65;101634.22;2107630;28;20076;-62
2021/08/21 02:19:39;;;;;;;14.38;10.93;;;;;;;13.90;94.62;101638.63;2107630;28;20024;-61
2021/08/21 02:20:39;;;;;;;16.20;11.87;;;;;;;13.87;94.63;101636.16;2098590;28;20020;-62
2021/08/21 02:21:40;;;;;;;16.88;11.75;;;;;;;13.85;94.77;101640.59;2098161;28;20502;-62
2021/08/21 02:22:44;;;;;;;13.93;11.87;;;;;;;13.84;94.59;101638.03;2107672;28;20034;-62
2021/08/21 02:23:45;;;;;;;17.45;12.13;;;;;;;13.83;94.65;101637.22;2107554;28;20400;-62
2021/08/21 02:24:52;;;;;;;17.13;12.45;;;;;;;13.81;94.70;101633.78;2107623;28;20038;-62
2021/08/21 02:25:56;;;;;;;14.50;10.90;;;;;;;13.81;94.64;101639.03;2107594;28;20047;-61
2021/08/21 02:27:00;;;;;;;14.73;12.50;;;;;;;13.80;94.65;101637.34;2107507;28;20078;-62
2021/08/21 02:28:09;;;;;;;14.38;12.85;;;;;;;13.80;94.70;101641.72;2107536;28;20012;-62
2021/08/21 02:29:10;;;;;;;17.05;14.25;;;;;;;13.79;94.97;101643.47;2107476;28;20024;-62
2021/08/21 02:30:10;;;;;;;16.58;13.65;;;;;;;13.80;94.88;101647.81;2107462;28;20495;-61
2021/08/21 02:31:11;;;;;;;14.32;12.80;;;;;;;13.80;95.00;101641.72;2098509;28;20039;-62
2021/08/21 02:32:11;;;;;;;18.27;14.27;;;;;;;13.81;94.77;101643.41;2098592;28;20044;-62
2021/08/21 02:33:11;;;;;;;15.63;11.77;;;;;;;13.82;94.84;101640.72;2107385;28;20024;-63
2021/08/21 02:34:12;;;;;;;15.80;11.77;;;;;;;13.83;95.01;101637.22;2107518;28;20552;-61
2021/08/21 02:35:12;;;;;;;17.03;13.53;;;;;;;13.86;94.90;101642.28;2107516;28;20039;-62
2021/08/21 02:36:13;;;;;;;16.07;13.40;;;;;;;13.87;94.94;101638.78;2107554;28;20106;-62
2021/08/21 02:37:14;;;;;;;16.40;13.18;;;;;;;13.88;95.14;101634.34;2098986;28;20485;-62
2021/08/21 02:38:14;;;;;;;16.63;13.23;;;;;;;13.90;95.19;101638.63;2107215;28;20153;-61
2021/08/21 02:39:15;;;;;;;16.33;13.53;;;;;;;13.91;95.30;101639.47;2107459;28;20020;-62
2021/08/21 02:40:15;;;;;;;15.93;13.03;;;;;;;13.92;94.94;101641.16;2107503;28;20020;-63
2021/08/21 02:41:16;;;;;;;16.23;12.65;;;;;;;13.93;95.16;101636.78;2107548;28;20023;-62
2021/08/21 02:42:16;;;;;;;14.98;13.32;;;;;;;13.95;95.03;101640.19;2107452;28;20473;-62
2021/08/21 02:43:17;;;;;;;16.50;12.20;;;;;;;13.94;95.28;101638.47;2098522;28;20048;-61
2021/08/21 02:44:17;;;;;;;15.13;13.25;;;;;;;13.95;95.00;101632.31;2098442;28;20024;-62
2021/08/21 02:45:18;;;;;;;17.10;13.53;;;;;;;13.95;95.25;101637.56;2107382;28;20016;-61
2021/08/21 02:46:18;;;;;;;15.55;13.93;;;;;;;13.96;95.18;101644.53;2107237;28;20062;-61
2021/08/21 02:47:18;;;;;;;16.23;13.10;;;;;;;13.96;95.11;101641.91;2107323;28;20027;-62
2021/08/21 02:48:18;;;;;;;19.07;13.23;;;;;;;13.95;95.09;101638.41;2107374;28;20024;-61
2021/08/21 02:49:19;;;;;;;14.50;12.27;;;;;;;13.94;95.19;101633.25;2107368;28;20044;-62
2021/08/21 02:50:19;;;;;;;14.30;11.80;;;;;;;13.93;95.22;101634.16;2107286;28;20024;-62
2021/08/21 02:51:20;;;;;;;13.43;12.03;;;;;;;13.93;94.96;101634.16;2107288;28;20020;-61
2021/08/21 02:52:20;;;;;;;16.10;11.63;;;;;;;13.93;95.23;101636.78;2107235;28;20473;-63
2021/08/21 02:53:20;;;;;;;12.37;10.87;;;;;;;13.92;95.14;101640.34;2107336;28;20046;-62
2021/08/21 02:54:21;;;;;;;14.80;10.87;;;;;;;13.92;95.01;101645.59;2107360;28;20111;-62
2021/08/21 02:55:21;;;;;;;14.37;11.20;;;;;;;13.88;95.17;101635.22;2107283;28;20473;-61
2021/08/21 02:56:21;;;;;;;14.00;10.93;;;;;;;13.86;94.95;101637.03;2107322;28;20062;-62
2021/08/21 02:57:21;;;;;;;15.20;10.30;;;;;;;13.86;95.06;101631.81;2107386;28;20782;-62
2021/08/21 02:58:22;;;;;;;12.67;10.73;;;;;;;13.84;95.23;101633.66;2107318;28;20400;-62
2021/08/21 02:59:22;;;;;;;11.83;8.30;;;;;;;13.84;95.21;101633.66;2107247;28;20093;-62
2021/08/21 03:00:22;;;;;;;14.97;10.57;;;;;;;13.83;95.18;101629.34;2098312;28;20040;-62
2021/08/21 03:01:23;;;;;;;14.83;11.90;;;;;;;13.82;95.14;101630.22;2089997;28;20493;-63
2021/08/21 03:02:23;;;;;;;18.90;13.13;;;;;;;13.81;95.25;101631.16;2098291;28;20028;-62
2021/08/21 03:03:23;;;;;;;15.40;11.27;;;;;;;13.79;95.17;101630.34;2107206;28;20027;-62
2021/08/21 03:04:23;;;;;;;14.63;10.97;;;;;;;13.79;95.16;101632.97;2107297;28;20051;-62
2021/08/21 03:05:24;;;;;;;14.10;10.40;;;;;;;13.78;95.06;101633.91;2107320;28;20024;-62
2021/08/21 03:06:24;;;;;;;12.50;9.57;;;;;;;13.78;95.26;101626.91;2107252;28;20383;-62
2021/08/21 03:07:24;;;;;;;13.53;9.47;;;;;;;13.75;95.37;101631.41;2107166;28;20024;-63
2021/08/21 03:08:24;;;;;;;15.33;11.90;;;;;;;13.74;95.24;101633.19;2107298;28;20036;-62
2021/08/21 03:09:25;;;;;;;11.07;9.63;;;;;;;13.73;95.06;101636.75;2098131;28;20039;-62
2021/08/21 03:10:25;;;;;;;14.30;9.97;;;;;;;13.73;95.27;101633.25;2098194;28;20025;-62
2021/08/21 03:11:25;;;;;;;15.57;11.10;;;;;;;13.71;95.23;101630.72;2107004;28;20043;-62
2021/08/21 03:12:28;;;;;;;13.00;10.87;;;;;;;13.72;95.31;101636.81;2107252;28;20036;-63
2021/08/21 03:13:29;;;;;;;14.18;9.90;;;;;;;13.72;95.37;101626.31;2107137;28;20016;-62
2021/08/21 03:14:29;;;;;;;13.60;11.93;;;;;;;13.71;95.24;101632.47;2107163;28;20027;-62
2021/08/21 03:15:30;;;;;;;12.73;10.33;;;;;;;13.73;95.27;101635.88;2107045;28;20020;-62
2021/08/21 03:16:30;;;;;;;16.15;12.07;;;;;;;13.74;95.41;101637.59;2107160;28;20046;-63
2021/08/21 03:17:30;;;;;;;14.93;13.10;;;;;;;13.75;95.17;101634.91;2107066;28;20019;-63
2021/08/21 03:18:30;;;;;;;14.93;12.67;;;;;;;13.75;95.31;101629.66;2107115;28;20047;-61
2021/08/21 03:19:31;;;;;;;14.83;12.47;;;;;;;13.77;95.44;101626.97;2098135;28;20084;-63
2021/08/21 03:20:31;;;;;;;16.40;13.10;;;;;;;13.77;95.49;101627.81;2098296;28;20153;-64
2021/08/21 03:21:31;;;;;;;17.17;12.43;;;;;;;13.79;95.47;101625.13;2107096;28;20016;-62
2021/08/21 03:22:32;;;;;;;18.20;12.40;;;;;;;13.80;95.27;101625.97;2107012;28;20034;-64
2021/08/21 03:23:32;;;;;;;15.07;9.83;;;;;;;13.80;95.58;101632.09;2106955;28;20039;-62
2021/08/21 03:24:32;;;;;;;17.57;12.83;;;;;;;13.81;95.50;101631.16;2107194;28;20109;-63
2021/08/21 03:25:32;;;;;;;14.57;11.43;;;;;;;13.81;95.59;101622.41;2107130;28;20070;-62
2021/08/21 03:26:32;;;;;;;13.57;11.07;;;;;;;13.83;95.38;101631.09;2107083;28;20035;-63
2021/08/21 03:27:33;;;;;;;16.37;10.80;;;;;;;13.82;95.23;101630.22;2107039;28;20534;-63
2021/08/21 03:28:34;;;;;;;14.60;10.73;;;;;;;13.83;95.58;101634.59;2107076;28;20028;-62
2021/08/21 03:29:34;;;;;;;17.27;13.25;;;;;;;13.86;95.62;101628.34;2106974;28;20032;-62
2021/08/21 03:30:34;;;;;;;11.23;9.53;;;;;;;13.86;95.60;101626.56;2107022;28;20026;-63
2021/08/21 03:31:34;;;;;;;13.83;12.17;;;;;;;13.88;95.44;101626.50;2107112;28;20028;-62
2021/08/21 03:32:35;;;;;;;13.90;11.97;;;;;;;13.90;95.65;101622.03;2106833;28;20027;-63
2021/08/21 03:33:35;;;;;;;15.50;12.87;;;;;;;13.92;95.75;101628.06;2106461;28;20102;-63
2021/08/21 03:34:37;;;;;;;14.60;10.40;;;;;;;13.94;95.63;101628.84;2107016;28;20764;-62
2021/08/21 03:35:37;;;;;;;15.55;12.60;;;;;;;13.97;95.62;101622.63;2107031;28;20015;-62
2021/08/21 03:36:37;;;;;;;14.87;10.13;;;;;;;13.98;95.64;101619.06;2097982;28;20056;-63
2021/08/21 03:37:37;;;;;;;13.87;12.47;;;;;;;14.01;95.67;101624.19;2098131;28;20056;-62
2021/08/21 03:38:38;;;;;;;16.07;11.53;;;;;;;14.03;95.65;101625.81;2097963;28;20516;-63
2021/08/21 03:39:39;;;;;;;15.67;11.30;;;;;;;14.04;95.65;101618.81;2097860;28;20017;-63
2021/08/21 03:40:39;;;;;;;14.52;13.02;;;;;;;14.07;95.58;101618.66;2107024;28;20020;-64
2021/08/21 03:41:40;;;;;;;15.95;10.95;;;;;;;14.07;95.80;101623.06;2106949;28;20150;-63
2021/08/21 03:42:40;;;;;;;14.07;10.77;;;;;;;14.06;95.61;101611.69;2107009;28;20028;-63
2021/08/21 03:43:40;;;;;;;14.33;12.60;;;;;;;14.10;95.58;101617.69;2107014;28;20024;-62
2021/08/21 03:44:41;;;;;;;16.17;12.57;;;;;;;14.10;95.60;101618.50;2097945;28;20181;-63
2021/08/21 03:45:41;;;;;;;14.90;12.77;;;;;;;14.13;95.67;101614.91;2098054;28;20024;-62
2021/08/21 03:46:42;;;;;;;15.70;13.15;;;;;;;14.15;95.53;101610.44;2107018;28;20032;-62
2021/08/21 03:47:42;;;;;;;16.57;14.03;;;;;;;14.16;95.65;101612.13;2106817;28;20595;-63
2021/08/21 03:48:42;;;;;;;16.07;12.80;;;;;;;14.18;95.64;101609.44;2106981;28;20412;-63
2021/08/21 03:49:43;;;;;;;12.77;10.53;;;;;;;14.20;95.59;101607.59;2106958;28;20381;-63
2021/08/21 03:50:43;;;;;;;16.00;12.47;;;;;;;14.21;95.56;101604.06;2106798;28;20385;-62
2021/08/21 03:51:43;;;;;;;14.60;11.93;;;;;;;14.22;95.62;101604.00;2106833;28;20031;-63
2021/08/21 03:52:44;;;;;;;15.82;12.93;;;;;;;14.23;95.41;101610.09;2106902;28;20020;-63
2021/08/21 03:53:44;;;;;;;16.03;12.57;;;;;;;14.21;95.45;101604.91;2106949;28;20032;-63
2021/08/21 03:54:44;;;;;;;12.80;10.13;;;;;;;14.20;95.63;101600.56;2106945;28;20024;-63
2021/08/21 03:55:45;;;;;;;14.40;12.90;;;;;;;14.19;95.49;101609.38;2106907;28;20028;-63
2021/08/21 03:56:45;;;;;;;17.50;13.20;;;;;;;14.18;95.54;101598.94;2106919;28;20334;-63
2021/08/21 03:57:45;;;;;;;16.30;12.53;;;;;;;14.18;95.38;101601.56;2106932;28;20020;-62
2021/08/21 03:58:45;;;;;;;12.90;10.80;;;;;;;14.16;95.43;101602.50;2106906;28;20027;-62
2021/08/21 03:59:46;;;;;;;17.23;11.43;;;;;;;14.16;95.50;101597.25;2106824;28;20031;-63
2021/08/21 04:00:46;;;;;;;18.87;12.90;;;;;;;14.16;95.71;101597.25;2106797;28;20020;-63
2021/08/21 04:01:46;;;;;;;20.33;14.70;;;;;;;14.16;95.70;101602.50;2106897;28;20023;-62
2021/08/21 04:02:46;;;;;;;14.63;12.30;;;;;;;14.17;95.56;101603.34;2106794;28;20024;-63
2021/08/21 04:03:47;;;;;;;17.80;13.37;;;;;;;14.15;95.43;101600.78;2106838;28;20024;-63
2021/08/21 04:04:47;;;;;;;16.03;11.93;;;;;;;14.15;95.47;101600.78;2106804;28;20052;-63
2021/08/21 04:05:47;;;;;;;16.97;12.77;;;;;;;14.15;95.67;101597.31;2106811;28;20027;-63
2021/08/21 04:06:47;;;;;;;14.90;13.27;;;;;;;14.15;95.72;101597.31;2106831;28;20028;-63
2021/08/21 04:07:48;;;;;;;16.30;12.93;;;;;;;14.16;95.58;101602.50;2106777;28;20050;-62
2021/08/21 04:08:48;;;;;;;16.80;13.47;;;;;;;14.16;95.63;101599.88;2106858;28;20044;-64
2021/08/21 04:09:48;;;;;;;14.23;11.30;;;;;;;14.19;95.41;101608.53;2106745;28;20023;-63
2021/08/21 04:10:49;;;;;;;16.93;14.00;;;;;;;14.18;95.67;101604.19;2106844;28;20277;-62
2021/08/21 04:11:49;;;;;;;17.13;12.47;;;;;;;14.18;95.41;101601.56;2106624;28;20489;-63
2021/08/21 04:12:49;;;;;;;16.83;12.67;;;;;;;14.18;95.65;101604.19;2106797;28;20093;-62
2021/08/21 04:13:49;;;;;;;15.07;11.13;;;;;;;14.16;95.84;101606.88;2106845;28;20104;-63
2021/08/21 04:14:50;;;;;;;14.63;12.10;;;;;;;14.15;95.55;101607.81;2106761;28;20024;-62
2021/08/21 04:15:50;;;;;;;13.73;11.27;;;;;;;14.15;95.71;101611.28;2106745;28;20142;-63
2021/08/21 04:16:50;;;;;;;16.17;10.80;;;;;;;14.13;95.54;101602.63;2106698;28;20028;-63
2021/08/21 04:17:51;;;;;;;15.27;11.47;;;;;;;14.12;95.55;101606.19;2106744;28;20034;-62
2021/08/21 04:18:51;;;;;;;16.63;13.27;;;;;;;14.11;95.65;101604.50;2106805;28;20460;-62
2021/08/21 04:19:51;;;;;;;15.63;11.90;;;;;;;14.12;95.65;101606.19;2106763;28;20024;-63
2021/08/21 04:20:51;;;;;;;17.13;10.97;;;;;;;14.09;95.56;101597.59;2106742;28;20028;-63
2021/08/21 04:21:52;;;;;;;17.17;12.20;;;;;;;14.09;95.63;101606.31;2097706;28;20176;-62
2021/08/21 04:22:52;;;;;;;17.43;11.90;;;;;;;14.08;95.60;101602.00;2097750;28;20375;-62
2021/08/21 04:23:53;;;;;;;16.10;13.43;;;;;;;14.06;95.40;101601.19;2106751;28;20032;-63
2021/08/21 04:24:53;;;;;;;18.05;11.10;;;;;;;14.04;95.62;101600.44;2106755;28;20469;-63
2021/08/21 04:25:59;;;;;;;16.20;10.97;;;;;;;14.02;95.67;101604.88;2106707;28;20023;-62
2021/08/21 04:26:59;;;;;;;17.30;11.07;;;;;;;13.99;95.59;101600.63;2106796;28;20074;-63
2021/08/21 04:27:59;;;;;;;19.87;12.27;;;;;;;13.97;95.59;101605.09;2106756;28;20526;-62
2021/08/21 04:29:00;;;;;;;15.13;11.17;;;;;;;13.95;95.58;101600.81;2106726;28;20389;-62
2021/08/21 04:30:00;;;;;;;15.00;10.87;;;;;;;13.92;95.47;101598.38;2106577;28;20393;-63
2021/08/21 04:31:00;;;;;;;16.23;11.00;;;;;;;13.92;95.64;101608.84;2106686;28;20047;-62
2021/08/21 04:32:02;;;;;;;20.50;13.37;;;;;;;13.90;95.69;101604.50;2106730;28;20032;-61
2021/08/21 04:33:02;;;;;;;15.93;12.38;;;;;;;13.88;95.69;101602.88;2106627;28;20446;-63
2021/08/21 04:34:03;;;;;;;17.43;12.20;;;;;;;13.86;95.63;101610.81;2106718;28;20078;-64
2021/08/21 04:35:03;;;;;;;13.37;10.33;;;;;;;13.83;95.68;101608.34;2106802;28;20095;-64
2021/08/21 04:36:04;;;;;;;15.30;10.95;;;;;;;13.82;95.73;101604.00;2106669;28;20111;-62